Time;durP1;ratioP1;P1;durP2;ratioP2;P2;SDS_P1;SDS_P2;PMS_P1;PMS_P2;Temp;Humidity;BMP_temperature;BMP_pressure;BME280_temperature;BME280_humidity;BME280_pressure;Samples;Min_cycle;Max_cycle;Signal;HPM_P1;HPM_P2
2022/01/18 00:00:01;;;;;;;14.45;11.13;;;;;21.40;102514.00;;;;2088428;28;20231;-62
2022/01/18 00:01:01;;;;;;;12.40;10.57;;;;;21.40;102517.00;;;;2085287;28;20216;-62
2022/01/18 00:02:02;;;;;;;16.47;11.50;;;;;21.40;102515.00;;;;2089082;28;20637;-62
2022/01/18 00:03:02;;;;;;;15.17;10.73;;;;;21.40;102515.00;;;;2089224;28;20240;-62
2022/01/18 00:04:03;;;;;;;11.70;9.80;;;;;21.40;102511.00;;;;2089050;28;20263;-62
2022/01/18 00:05:03;;;;;;;16.17;10.40;;;;;21.40;102522.00;;;;2088792;28;20259;-62
2022/01/18 00:06:04;;;;;;;15.07;10.03;;;;;21.40;102521.00;;;;2089033;28;20219;-62
2022/01/18 00:07:04;;;;;;;13.97;9.93;;;;;21.40;102523.00;;;;2088852;28;20247;-62
2022/01/18 00:08:04;;;;;;;14.07;9.47;;;;;21.40;102502.00;;;;2088318;28;20300;-62
2022/01/18 00:09:05;;;;;;;13.57;9.47;;;;;21.40;102512.00;;;;2088413;28;20221;-61
2022/01/18 00:10:06;;;;;;;13.20;8.93;;;;;21.40;102508.00;;;;2089143;28;20300;-62
2022/01/18 00:11:06;;;;;;;11.90;9.77;;;;;21.40;102501.00;;;;2088774;28;20216;-62
2022/01/18 00:12:32;;;;;;;11.40;8.60;;;;;21.40;102512.00;;;;2088950;28;20213;-62
2022/01/18 00:13:40;;;;;;;13.50;8.93;;;;;21.30;102511.00;;;;2088654;28;20447;-62
2022/01/18 00:14:44;;;;;;;14.65;8.65;;;;;21.30;102510.00;;;;2088592;28;20212;-62
2022/01/18 00:17:40;;;;;;;10.27;7.90;;;;;21.30;102516.00;;;;2088379;28;20286;-62
2022/01/18 00:18:20;;;;;;;11.10;8.07;;;;;21.30;102515.00;;;;2086361;28;20216;-62
2022/01/18 00:19:24;;;;;;;10.63;7.70;;;;;21.30;102514.00;;;;2088986;28;20553;-62
2022/01/18 00:20:36;;;;;;;13.43;8.57;;;;;21.30;102509.00;;;;2088834;28;20291;-62
2022/01/18 00:21:52;;;;;;;10.35;8.07;;;;;21.30;102513.00;;;;2088878;28;20258;-62
2022/01/18 00:22:52;;;;;;;12.75;7.80;;;;;21.30;102515.00;;;;2089137;28;20205;-62
2022/01/18 00:23:56;;;;;;;11.60;7.47;;;;;21.30;102514.00;;;;2088758;28;20694;-62
2022/01/18 00:24:59;;;;;;;13.20;8.68;;;;;21.30;102529.00;;;;2088872;28;20232;-62
2022/01/18 00:25:59;;;;;;;11.90;7.47;;;;;21.30;102519.00;;;;2089001;28;20240;-62
2022/01/18 00:26:59;;;;;;;13.87;7.73;;;;;21.30;102525.00;;;;2085209;28;20284;-62
2022/01/18 00:28:00;;;;;;;10.93;7.77;;;;;21.30;102524.00;;;;2088999;28;20220;-62
2022/01/18 00:29:07;;;;;;;10.03;7.00;;;;;21.30;102520.00;;;;2087843;28;20220;-62
2022/01/18 00:31:45;;;;;;;9.70;7.35;;;;;21.30;102528.00;;;;2089070;28;20601;-62
2022/01/18 00:32:57;;;;;;;10.57;6.90;;;;;21.20;102520.00;;;;2087422;28;20240;-62
2022/01/18 00:34:05;;;;;;;9.30;6.65;;;;;21.30;102532.00;;;;2085724;28;20220;-62
2022/01/18 00:35:05;;;;;;;11.10;7.40;;;;;21.30;102534.00;;;;2087902;28;20299;-62
2022/01/18 00:36:08;;;;;;;9.90;6.43;;;;;21.20;102537.00;;;;2088918;28;20672;-62
2022/01/18 00:38:30;;;;;;;10.40;7.13;;;;;21.30;102539.00;;;;2088723;28;20219;-62
2022/01/18 00:39:29;;;;;;;9.88;7.55;;;;;21.20;102542.00;;;;2087404;28;20212;-62
2022/01/18 00:40:30;;;;;;;9.13;6.23;;;;;21.20;102537.00;;;;2088593;28;20212;-62
2022/01/18 00:41:30;;;;;;;12.60;7.23;;;;;21.20;102543.00;;;;2088870;28;20201;-62
2022/01/18 00:42:30;;;;;;;10.50;6.60;;;;;21.20;102546.00;;;;2088827;28;20208;-62
2022/01/18 00:43:31;;;;;;;10.17;6.30;;;;;21.20;102544.00;;;;2088783;28;20221;-62
2022/01/18 00:44:31;;;;;;;10.20;6.30;;;;;21.20;102548.00;;;;2088812;28;20208;-62
2022/01/18 00:45:31;;;;;;;9.57;6.27;;;;;21.20;102548.00;;;;2085101;28;20225;-62
2022/01/18 00:46:32;;;;;;;8.83;5.90;;;;;21.20;102555.00;;;;2088892;28;20225;-62
2022/01/18 00:47:32;;;;;;;10.80;6.73;;;;;21.20;102556.00;;;;2088782;28;20572;-62
2022/01/18 00:48:35;;;;;;;12.20;6.80;;;;;21.20;102545.00;;;;2088283;28;20564;-62
2022/01/18 00:49:42;;;;;;;9.25;6.00;;;;;21.20;102557.00;;;;2074693;28;20239;-62
2022/01/18 00:50:42;;;;;;;9.65;6.20;;;;;21.20;102554.00;;;;2087828;28;20212;-62
2022/01/18 00:51:45;;;;;;;9.27;6.00;;;;;21.20;102556.00;;;;2088634;28;20213;-62
2022/01/18 00:52:50;;;;;;;10.48;5.63;;;;;21.20;102551.00;;;;2085250;28;20235;-62
2022/01/18 00:53:50;;;;;;;10.15;5.55;;;;;21.20;102566.00;;;;2088739;28;20219;-62
2022/01/18 00:54:51;;;;;;;10.40;6.43;;;;;21.10;102550.00;;;;2084717;28;20245;-62
2022/01/18 00:57:08;;;;;;;10.00;5.43;;;;;21.10;102562.00;;;;2086856;28;20598;-62
2022/01/18 00:58:08;;;;;;;9.73;5.43;;;;;21.10;102550.00;;;;2084917;28;20213;-62
2022/01/18 00:59:08;;;;;;;7.80;4.87;;;;;21.10;102551.00;;;;2088765;28;20209;-62
2022/01/18 01:00:09;;;;;;;11.20;5.80;;;;;21.10;102553.00;;;;2088438;28;20217;-62
2022/01/18 01:01:10;;;;;;;8.17;5.67;;;;;21.20;102556.00;;;;2088469;28;20216;-62
2022/01/18 01:02:10;;;;;;;8.50;5.30;;;;;21.10;102556.00;;;;2088683;28;20291;-62
2022/01/18 01:03:10;;;;;;;10.17;5.50;;;;;21.10;102562.00;;;;2088659;28;20483;-62
2022/01/18 01:04:11;;;;;;;11.07;5.50;;;;;21.10;102551.00;;;;2088654;28;20734;-62
2022/01/18 01:05:11;;;;;;;8.00;4.67;;;;;21.10;102565.00;;;;2087822;28;20863;-62
2022/01/18 01:06:12;;;;;;;9.17;5.57;;;;;21.10;102567.00;;;;2087524;28;20247;-62
2022/01/18 01:07:12;;;;;;;11.60;5.37;;;;;21.10;102566.00;;;;2078578;28;20233;-62
2022/01/18 01:08:12;;;;;;;8.13;5.03;;;;;21.10;102563.00;;;;2087303;28;20283;-62
2022/01/18 01:09:13;;;;;;;9.30;4.80;;;;;21.10;102565.00;;;;2088203;28;20224;-62
2022/01/18 01:10:13;;;;;;;12.47;5.33;;;;;21.10;102575.00;;;;2088179;28;20248;-62
2022/01/18 01:11:13;;;;;;;8.27;5.20;;;;;21.10;102571.00;;;;2088050;28;20821;-62
2022/01/18 01:12:14;;;;;;;7.93;5.20;;;;;21.10;102572.00;;;;2087791;28;20583;-62
2022/01/18 01:13:15;;;;;;;8.80;5.07;;;;;21.10;102559.00;;;;2087509;28;20221;-62
2022/01/18 01:14:20;;;;;;;8.70;5.10;;;;;21.10;102571.00;;;;2070964;28;20553;-62
2022/01/18 01:15:23;;;;;;;10.88;5.47;;;;;21.10;102566.00;;;;2071509;28;20210;-62
2022/01/18 01:34:14;;;;;;;10.43;4.23;;;;;21.00;102576.00;;;;2088024;28;20300;-62
2022/01/18 01:41:44;;;;;;;8.40;4.38;;;;;21.00;102571.00;;;;2087691;28;20841;-62
2022/01/18 01:44:04;;;;;;;7.25;4.28;;;;;21.00;102579.00;;;;2078846;28;20300;-62
2022/01/18 01:45:06;;;;;;;9.55;4.28;;;;;21.00;102578.00;;;;2084729;28;20204;-62
2022/01/18 01:46:06;;;;;;;6.70;3.60;;;;;21.00;102577.00;;;;2088302;28;20573;-62
2022/01/18 01:47:06;;;;;;;6.90;4.20;;;;;21.00;102574.00;;;;2088113;28;20244;-62
2022/01/18 01:48:07;;;;;;;8.10;4.00;;;;;21.00;102585.00;;;;2088229;28;20223;-62
2022/01/18 01:49:12;;;;;;;8.73;3.97;;;;;21.00;102575.00;;;;2087682;28;20213;-62
2022/01/18 01:50:18;;;;;;;9.70;4.32;;;;;21.00;102582.00;;;;2087508;28;20217;-62
2022/01/18 01:51:20;;;;;;;9.52;4.53;;;;;21.00;102581.00;;;;2084720;28;20209;-62
2022/01/18 01:52:20;;;;;;;10.88;4.20;;;;;21.00;102584.00;;;;2085489;28;20213;-62
2022/01/18 01:53:22;;;;;;;6.60;3.80;;;;;21.00;102570.00;;;;2087537;28;20215;-62
2022/01/18 01:54:23;;;;;;;8.10;3.80;;;;;21.00;102578.00;;;;2088036;28;20204;-62
2022/01/18 01:55:23;;;;;;;7.73;3.90;;;;;21.00;102569.00;;;;2087479;28;20832;-62
2022/01/18 01:56:23;;;;;;;7.67;3.50;;;;;21.00;102574.00;;;;2087548;28;20715;-62
2022/01/18 01:57:24;;;;;;;8.70;4.07;;;;;21.00;102577.00;;;;2077926;28;20278;-62
2022/01/18 01:58:25;;;;;;;6.97;3.80;;;;;21.00;102582.00;;;;2091333;28;20284;-62
2022/01/18 01:59:25;;;;;;;6.90;3.80;;;;;21.00;102578.00;;;;2090742;28;20205;-62
2022/01/18 02:00:25;;;;;;;10.80;4.60;;;;;21.00;102577.00;;;;2087948;28;20726;-62
2022/01/18 02:01:26;;;;;;;7.43;3.70;;;;;21.00;102568.00;;;;2088401;28;20683;-62
2022/01/18 02:02:30;;;;;;;8.30;4.03;;;;;21.00;102571.00;;;;2087902;28;20684;-62
2022/01/18 02:03:30;;;;;;;9.10;4.38;;;;;21.00;102575.00;;;;2084413;28;20205;-62
2022/01/18 02:04:30;;;;;;;6.37;3.30;;;;;21.00;102580.00;;;;2087873;28;20219;-62
2022/01/18 02:05:31;;;;;;;6.60;4.27;;;;;21.00;102566.00;;;;2087686;28;20284;-62
2022/01/18 02:06:31;;;;;;;9.57;3.97;;;;;21.00;102572.00;;;;2088199;28;20676;-62
2022/01/18 02:07:31;;;;;;;7.33;4.13;;;;;20.90;102566.00;;;;2087935;28;20686;-62
2022/01/18 02:08:32;;;;;;;7.30;3.70;;;;;20.90;102567.00;;;;2088248;28;20845;-62
2022/01/18 02:09:32;;;;;;;8.77;3.87;;;;;20.90;102577.00;;;;2088136;28;21130;-62
2022/01/18 02:10:36;;;;;;;9.00;3.40;;;;;20.90;102576.00;;;;2087237;28;20631;-62
2022/01/18 02:11:36;;;;;;;8.57;3.60;;;;;20.90;102573.00;;;;2084123;28;20286;-62
2022/01/18 02:12:37;;;;;;;8.87;4.37;;;;;20.90;102567.00;;;;2085719;28;20638;-62
2022/01/18 02:13:38;;;;;;;9.32;3.65;;;;;20.90;102573.00;;;;2088237;28;20223;-62
2022/01/18 02:14:40;;;;;;;6.43;4.10;;;;;20.90;102569.00;;;;2088015;28;20256;-62
2022/01/18 02:15:48;;;;;;;7.25;3.42;;;;;20.90;102575.00;;;;2088008;28;20245;-62
2022/01/18 02:22:05;;;;;;;5.90;3.30;;;;;20.90;102574.00;;;;2083041;28;20217;-62
2022/01/18 02:23:05;;;;;;;5.70;3.20;;;;;20.90;102569.00;;;;2087577;28;20217;-62
2022/01/18 02:24:06;;;;;;;7.20;3.60;;;;;20.90;102564.00;;;;2087735;28;20455;-62
2022/01/18 02:25:07;;;;;;;6.70;3.28;;;;;20.90;102572.00;;;;2087758;28;20220;-62
2022/01/18 02:26:07;;;;;;;7.40;3.30;;;;;20.90;102565.00;;;;2084557;28;20276;-62
2022/01/18 02:27:07;;;;;;;7.27;3.73;;;;;20.90;102558.00;;;;2085412;28;20694;-62
2022/01/18 02:28:08;;;;;;;8.63;3.83;;;;;20.90;102553.00;;;;2087109;28;20236;-62
2022/01/18 02:29:08;;;;;;;6.37;3.53;;;;;20.90;102558.00;;;;2083024;28;20232;-62
2022/01/18 02:30:09;;;;;;;6.70;3.40;;;;;20.90;102557.00;;;;2087782;28;20224;-62
2022/01/18 02:31:09;;;;;;;6.50;3.23;;;;;20.90;102556.00;;;;2087066;28;20720;-62
2022/01/18 02:32:10;;;;;;;6.83;3.70;;;;;20.90;102555.00;;;;2083860;28;20682;-62
2022/01/18 02:33:10;;;;;;;7.83;3.30;;;;;20.90;102552.00;;;;2078683;28;20225;-62
2022/01/18 02:34:13;;;;;;;6.07;3.10;;;;;20.90;102552.00;;;;2078416;28;20209;-62
2022/01/18 02:35:13;;;;;;;5.28;2.83;;;;;20.90;102550.00;;;;2086961;28;20208;-62
2022/01/18 02:36:13;;;;;;;7.53;3.20;;;;;20.90;102542.00;;;;2086987;28;20209;-62
2022/01/18 02:37:14;;;;;;;7.00;3.00;;;;;20.90;102551.00;;;;2087229;28;20248;-62
2022/01/18 02:38:14;;;;;;;6.57;3.07;;;;;20.90;102550.00;;;;2087404;28;20240;-62
2022/01/18 02:39:19;;;;;;;6.90;2.90;;;;;20.90;102550.00;;;;2087581;28;20227;-62
2022/01/18 02:40:20;;;;;;;5.47;3.17;;;;;20.90;102555.00;;;;2087403;28;20258;-62
2022/01/18 02:41:28;;;;;;;5.82;2.75;;;;;20.90;102555.00;;;;2087066;28;20274;-62
2022/01/18 02:42:40;;;;;;;7.88;3.40;;;;;20.80;102555.00;;;;2084949;28;20662;-62
2022/01/18 02:43:46;;;;;;;5.35;3.20;;;;;20.90;102544.00;;;;2085072;28;20213;-62
2022/01/18 02:44:49;;;;;;;7.50;3.30;;;;;20.80;102554.00;;;;2087755;28;20235;-62
2022/01/18 02:45:53;;;;;;;7.38;3.40;;;;;20.90;102558.00;;;;2084221;28;20672;-62
2022/01/18 02:46:53;;;;;;;6.63;3.20;;;;;20.80;102555.00;;;;2085005;28;20250;-62
2022/01/18 02:47:54;;;;;;;5.23;2.50;;;;;20.90;102552.00;;;;2087519;28;20753;-62
2022/01/18 02:48:56;;;;;;;6.80;3.25;;;;;20.80;102558.00;;;;2087430;28;20217;-62
2022/01/18 02:49:57;;;;;;;7.88;3.30;;;;;20.80;102560.00;;;;2086791;28;20229;-62
2022/01/18 02:50:57;;;;;;;6.38;3.15;;;;;20.80;102557.00;;;;2086921;28;20282;-61
2022/01/18 02:51:58;;;;;;;8.67;3.80;;;;;20.90;102552.00;;;;2084310;28;20323;-62
2022/01/18 02:52:58;;;;;;;4.53;2.60;;;;;20.70;102554.00;;;;2087528;28;20236;-62
2022/01/18 02:54:05;;;;;;;6.10;2.60;;;;;20.80;102563.00;;;;2087712;28;20221;-62
2022/01/18 02:55:05;;;;;;;5.47;2.70;;;;;20.80;102558.00;;;;2087494;28;20323;-62
2022/01/18 02:56:06;;;;;;;5.47;3.13;;;;;20.80;102561.00;;;;2087085;28;20615;-62
2022/01/18 02:57:11;;;;;;;7.17;3.73;;;;;20.80;102559.00;;;;2087421;28;20220;-62
2022/01/18 02:58:12;;;;;;;7.07;3.10;;;;;20.80;102562.00;;;;2086982;28;20228;-62
2022/01/18 03:00:27;;;;;;;6.32;3.45;;;;;20.80;102566.00;;;;2083696;28;20904;-62
2022/01/18 03:04:05;;;;;;;6.53;2.95;;;;;20.80;102564.00;;;;2086135;28;20213;-62
2022/01/18 03:05:06;;;;;;;6.77;3.13;;;;;20.80;102568.00;;;;2087667;28;20216;-62
2022/01/18 03:06:06;;;;;;;6.32;3.03;;;;;20.80;102558.00;;;;2087165;28;20225;-62
2022/01/18 03:07:07;;;;;;;5.10;2.80;;;;;20.80;102558.00;;;;2075483;28;20222;-62
2022/01/18 03:08:09;;;;;;;6.03;2.87;;;;;20.80;102552.00;;;;2086917;28;20282;-62
2022/01/18 03:09:09;;;;;;;6.95;3.00;;;;;20.80;102560.00;;;;2086093;28;20453;-62
2022/01/18 03:10:11;;;;;;;6.07;3.67;;;;;20.80;102553.00;;;;2087294;28;20209;-62
2022/01/18 03:11:11;;;;;;;7.15;3.35;;;;;20.80;102560.00;;;;2087130;28;20733;-62
2022/01/18 03:12:12;;;;;;;6.03;2.97;;;;;20.80;102561.00;;;;2085193;28;20258;-62
2022/01/18 03:13:12;;;;;;;6.80;3.00;;;;;20.80;102558.00;;;;2087449;28;20216;-62
2022/01/18 03:14:12;;;;;;;6.47;2.67;;;;;20.80;102565.00;;;;2087270;28;20220;-62
2022/01/18 03:15:12;;;;;;;5.60;3.03;;;;;20.80;102562.00;;;;2087350;28;21048;-62
2022/01/18 03:16:13;;;;;;;7.00;3.43;;;;;20.80;102571.00;;;;2087803;28;20752;-62
2022/01/18 03:17:13;;;;;;;5.80;2.40;;;;;20.80;102565.00;;;;2087053;28;20205;-62
2022/01/18 03:18:13;;;;;;;6.77;3.27;;;;;20.80;102571.00;;;;2085487;28;20603;-62
2022/01/18 03:19:14;;;;;;;6.83;3.07;;;;;20.80;102563.00;;;;2087114;28;20641;-62
2022/01/18 03:20:17;;;;;;;6.57;2.80;;;;;20.80;102569.00;;;;2087770;28;20299;-62
2022/01/18 03:21:17;;;;;;;6.10;2.40;;;;;20.70;102569.00;;;;2086915;28;20598;-62
2022/01/18 03:22:17;;;;;;;8.50;3.50;;;;;20.70;102571.00;;;;2086914;28;20247;-62
2022/01/18 03:23:21;;;;;;;7.20;3.00;;;;;20.70;102562.00;;;;2086325;28;20704;-62
2022/01/18 03:28:03;;;;;;;6.57;2.65;;;;;20.70;102579.00;;;;2087574;28;20267;-62
2022/01/18 03:28:05;;;;;;;5.95;2.55;;;;;20.80;102566.00;;;;2085361;28;20233;-62
2022/01/18 03:29:05;;;;;;;6.93;2.83;;;;;20.70;102580.00;;;;2084219;28;20215;-62
2022/01/18 03:30:07;;;;;;;5.80;2.90;;;;;20.70;102579.00;;;;2088248;28;20226;-62
2022/01/18 03:31:08;;;;;;;8.02;3.20;;;;;20.70;102572.00;;;;2089177;28;20700;-62
2022/01/18 03:32:08;;;;;;;6.50;3.10;;;;;20.70;102572.00;;;;2086636;28;20221;-62
2022/01/18 03:33:10;;;;;;;6.40;3.13;;;;;20.70;102571.00;;;;2088993;28;20213;-62
2022/01/18 03:34:10;;;;;;;8.30;3.38;;;;;20.70;102566.00;;;;2088975;28;20244;-62
2022/01/18 03:35:11;;;;;;;4.37;2.57;;;;;20.70;102572.00;;;;2088550;28;20612;-62
2022/01/18 03:36:11;;;;;;;7.27;2.63;;;;;20.70;102576.00;;;;2088712;28;20583;-62
2022/01/18 03:37:12;;;;;;;5.03;2.67;;;;;20.70;102572.00;;;;2086682;28;20255;-62
2022/01/18 03:38:13;;;;;;;5.90;2.83;;;;;20.70;102571.00;;;;2088776;28;20213;-62
2022/01/18 03:39:13;;;;;;;5.93;2.83;;;;;20.70;102558.00;;;;2088339;28;20296;-62
2022/01/18 03:40:13;;;;;;;5.20;2.63;;;;;20.70;102569.00;;;;2089137;28;20824;-62
2022/01/18 03:41:14;;;;;;;6.47;3.20;;;;;20.70;102566.00;;;;2089056;28;20213;-62
2022/01/18 03:43:20;;;;;;;6.43;2.85;;;;;20.70;102565.00;;;;2089417;28;20216;-62
2022/01/18 03:44:22;;;;;;;5.87;2.90;;;;;20.70;102572.00;;;;2089315;28;20216;-62
2022/01/18 03:45:40;;;;;;;6.85;2.90;;;;;20.70;102562.00;;;;2089419;28;20228;-62
2022/01/18 03:46:40;;;;;;;7.70;3.30;;;;;20.70;102576.00;;;;2085756;28;20208;-62
2022/01/18 03:47:41;;;;;;;5.13;2.73;;;;;20.70;102569.00;;;;2088109;28;20583;-62
2022/01/18 03:48:49;;;;;;;5.67;2.53;;;;;20.70;102571.00;;;;2089124;28;20670;-62
2022/01/18 03:49:50;;;;;;;5.07;2.35;;;;;20.70;102573.00;;;;2085384;28;21064;-62
2022/01/18 03:50:50;;;;;;;4.93;2.30;;;;;20.70;102570.00;;;;2088232;28;20287;-61
2022/01/18 03:51:50;;;;;;;5.97;2.70;;;;;20.70;102578.00;;;;2089203;28;20682;-61
2022/01/18 03:52:51;;;;;;;6.80;2.50;;;;;20.70;102568.00;;;;2088265;28;20310;-62
2022/01/18 03:53:51;;;;;;;7.20;2.80;;;;;20.70;102569.00;;;;2088771;28;20212;-62
2022/01/18 03:54:53;;;;;;;5.10;2.40;;;;;20.70;102578.00;;;;2088744;28;20270;-62
2022/01/18 03:55:54;;;;;;;4.25;2.17;;;;;20.70;102570.00;;;;2088554;28;20822;-62
2022/01/18 03:56:54;;;;;;;7.73;2.80;;;;;20.70;102578.00;;;;2088488;28;20213;-62
2022/01/18 03:57:54;;;;;;;6.33;2.87;;;;;20.70;102582.00;;;;2087580;28;20895;-62
2022/01/18 03:58:55;;;;;;;5.30;2.27;;;;;20.70;102581.00;;;;2088920;28;20708;-62
2022/01/18 03:59:55;;;;;;;5.47;2.47;;;;;20.70;102579.00;;;;2088913;28;21433;-61
2022/01/18 04:00:55;;;;;;;5.37;2.20;;;;;20.70;102579.00;;;;2088037;28;20221;-62
2022/01/18 04:01:56;;;;;;;6.30;2.20;;;;;20.60;102578.00;;;;2089160;28;20221;-62
2022/01/18 04:02:58;;;;;;;5.50;2.50;;;;;20.60;102586.00;;;;2085944;28;20220;-62
2022/01/18 04:03:59;;;;;;;5.20;2.22;;;;;20.70;102585.00;;;;2088545;28;20260;-62
2022/01/18 04:05:00;;;;;;;4.00;2.20;;;;;20.60;102578.00;;;;2089090;28;20212;-62
2022/01/18 04:06:00;;;;;;;3.15;2.00;;;;;20.60;102581.00;;;;2085586;28;20209;-62
2022/01/18 04:07:00;;;;;;;5.67;2.10;;;;;20.60;102586.00;;;;2089083;28;20682;-62
2022/01/18 04:08:01;;;;;;;4.57;2.33;;;;;20.70;102582.00;;;;2085035;28;21192;-62
2022/01/18 04:09:02;;;;;;;5.20;2.30;;;;;20.60;102582.00;;;;2088708;28;20212;-62
2022/01/18 04:10:04;;;;;;;5.07;2.50;;;;;20.60;102581.00;;;;2087800;28;20212;-62
2022/01/18 04:11:04;;;;;;;5.97;2.45;;;;;20.60;102587.00;;;;2087681;28;20556;-62
2022/01/18 04:12:05;;;;;;;4.70;2.27;;;;;20.60;102592.00;;;;2088703;28;20242;-62
2022/01/18 04:13:05;;;;;;;6.17;2.87;;;;;20.60;102594.00;;;;2084520;28;20212;-62
2022/01/18 04:14:06;;;;;;;4.60;2.63;;;;;20.60;102587.00;;;;2087726;28;20461;-62
2022/01/18 04:15:11;;;;;;;4.03;2.07;;;;;20.60;102587.00;;;;2088098;28;20682;-62
2022/01/18 04:16:12;;;;;;;6.38;2.25;;;;;20.60;102593.00;;;;2087784;28;20547;-62
2022/01/18 04:27:35;;;;;;;5.23;2.30;;;;;20.60;102596.00;;;;2088529;28;20224;-62
2022/01/18 04:28:39;;;;;;;5.95;2.10;;;;;20.60;102581.00;;;;2088154;28;20220;-62
2022/01/18 04:29:40;;;;;;;5.47;2.33;;;;;20.60;102577.00;;;;2088671;28;20212;-62
2022/01/18 04:30:40;;;;;;;3.90;1.90;;;;;20.60;102584.00;;;;2088039;28;20205;-61
2022/01/18 04:31:40;;;;;;;4.67;2.50;;;;;20.60;102588.00;;;;2088704;28;20212;-62
2022/01/18 04:32:41;;;;;;;5.20;2.30;;;;;20.60;102585.00;;;;2087019;28;20217;-62
2022/01/18 04:33:41;;;;;;;6.00;2.40;;;;;20.60;102582.00;;;;2088555;28;20212;-62
2022/01/18 04:34:41;;;;;;;4.27;1.87;;;;;20.60;102587.00;;;;2087782;28;20212;-61
2022/01/18 04:35:42;;;;;;;4.17;1.80;;;;;20.60;102577.00;;;;2083647;28;20233;-62
2022/01/18 04:36:45;;;;;;;4.00;1.73;;;;;20.60;102574.00;;;;2088040;28;20208;-62
2022/01/18 04:37:45;;;;;;;4.78;2.40;;;;;20.60;102578.00;;;;2087543;28;20212;-62
2022/01/18 04:38:45;;;;;;;4.37;1.80;;;;;20.60;102578.00;;;;2087481;28;20255;-62
2022/01/18 04:39:46;;;;;;;5.77;2.00;;;;;20.60;102578.00;;;;2088216;28;20267;-61
2022/01/18 04:40:48;;;;;;;4.07;1.85;;;;;20.60;102581.00;;;;2088235;28;20231;-62
2022/01/18 04:41:48;;;;;;;4.03;1.80;;;;;20.60;102572.00;;;;2086977;28;20213;-62
2022/01/18 04:48:58;;;;;;;5.10;1.98;;;;;20.50;102575.00;;;;2085699;28;20213;-62
2022/01/18 04:49:58;;;;;;;4.15;1.92;;;;;20.60;102568.00;;;;2088272;28;20719;-62
2022/01/18 04:51:03;;;;;;;5.73;2.17;;;;;20.60;102581.00;;;;2088012;28;20201;-61
2022/01/18 04:52:03;;;;;;;3.25;1.70;;;;;20.60;102581.00;;;;2088267;28;20213;-62
2022/01/18 04:53:03;;;;;;;4.40;2.20;;;;;20.50;102582.00;;;;2087402;28;20248;-62
2022/01/18 04:54:06;;;;;;;3.87;1.80;;;;;20.50;102577.00;;;;2088560;28;20240;-62
2022/01/18 04:55:08;;;;;;;4.97;1.98;;;;;20.50;102579.00;;;;2085286;28;20220;-62
2022/01/18 04:56:14;;;;;;;7.18;2.13;;;;;20.50;102581.00;;;;2088717;28;20588;-62
2022/01/18 04:58:14;;;;;;;4.10;1.80;;;;;20.50;102580.00;;;;2084980;28;20236;-62
2022/01/18 04:59:16;;;;;;;3.50;1.73;;;;;20.50;102591.00;;;;2087804;28;20727;-62
2022/01/18 05:00:17;;;;;;;4.45;1.73;;;;;20.50;102586.00;;;;2088041;28;20240;-62
2022/01/18 05:01:17;;;;;;;3.97;1.97;;;;;20.50;102579.00;;;;2087414;28;20219;-62
2022/01/18 05:02:17;;;;;;;4.43;1.57;;;;;20.40;102587.00;;;;2087598;28;20235;-62
2022/01/18 05:03:18;;;;;;;6.40;1.90;;;;;20.50;102592.00;;;;2086235;28;20266;-61
2022/01/18 05:04:18;;;;;;;4.63;1.93;;;;;20.50;102588.00;;;;2088053;28;20248;-62
2022/01/18 05:05:31;;;;;;;3.50;1.50;;;;;20.50;102593.00;;;;2087973;28;20296;-62
2022/01/18 05:06:31;;;;;;;5.55;2.50;;;;;20.50;102598.00;;;;2085892;28;20584;-62
2022/01/18 05:07:32;;;;;;;5.60;1.70;;;;;20.50;102592.00;;;;2087811;28;20220;-62
2022/01/18 05:08:32;;;;;;;4.60;1.80;;;;;20.50;102592.00;;;;2088003;28;20233;-61
2022/01/18 05:09:33;;;;;;;4.20;1.40;;;;;20.50;102594.00;;;;2088026;28;20209;-62
2022/01/18 05:10:33;;;;;;;3.47;1.90;;;;;20.50;102597.00;;;;2087959;28;20209;-62
2022/01/18 05:11:39;;;;;;;7.60;2.23;;;;;20.50;102602.00;;;;2088359;28;20232;-62
2022/01/18 05:12:46;;;;;;;3.95;1.50;;;;;20.50;102597.00;;;;2087701;28;20591;-62
2022/01/18 05:14:18;;;;;;;4.05;1.90;;;;;20.50;102603.00;;;;2088326;28;20217;-62
2022/01/18 05:16:14;;;;;;;4.97;1.90;;;;;20.50;102602.00;;;;2087311;28;20213;-62
2022/01/18 05:16:50;;;;;;;4.10;1.88;;;;;20.50;102609.00;;;;2084757;28;20213;-62
2022/01/18 05:19:38;;;;;;;3.28;1.98;;;;;20.50;102602.00;;;;2087084;28;20292;-62
2022/01/18 05:23:00;;;;;;;4.15;2.00;;;;;20.50;102620.00;;;;2087904;28;20623;-62
2022/01/18 05:24:01;;;;;;;3.13;1.60;;;;;20.50;102621.00;;;;2076463;28;20712;-62
2022/01/18 05:25:01;;;;;;;3.40;1.53;;;;;20.50;102615.00;;;;2079197;28;20221;-62
2022/01/18 05:26:02;;;;;;;5.70;1.83;;;;;20.50;102616.00;;;;2071153;28;20248;-62
2022/01/18 05:27:02;;;;;;;4.57;1.90;;;;;20.40;102614.00;;;;2083330;28;20220;-62
2022/01/18 05:28:04;;;;;;;5.83;1.73;;;;;20.40;102623.00;;;;2082510;28;20220;-62
2022/01/18 05:29:04;;;;;;;5.65;1.90;;;;;20.50;102626.00;;;;2087759;28;20217;-62
2022/01/18 05:30:05;;;;;;;3.23;1.83;;;;;20.50;102615.00;;;;2087325;28;20246;-62
2022/01/18 05:31:05;;;;;;;4.60;1.80;;;;;20.40;102619.00;;;;2087542;28;20221;-61
2022/01/18 05:32:06;;;;;;;5.30;2.37;;;;;20.50;102623.00;;;;2087755;28;20482;-62
2022/01/18 05:33:06;;;;;;;5.27;1.77;;;;;20.40;102613.00;;;;2088065;28;20216;-62
2022/01/18 05:34:07;;;;;;;5.00;1.80;;;;;20.40;102619.00;;;;2087839;28;20209;-62
2022/01/18 05:35:07;;;;;;;3.27;1.80;;;;;20.40;102618.00;;;;2088048;28;20217;-62
2022/01/18 05:36:10;;;;;;;4.77;2.03;;;;;20.40;102615.00;;;;2087959;28;20298;-61
2022/01/18 05:37:11;;;;;;;4.47;1.92;;;;;20.50;102618.00;;;;2087493;28;20225;-62
2022/01/18 05:38:12;;;;;;;5.32;1.95;;;;;20.50;102613.00;;;;2087965;28;20217;-61
2022/01/18 05:39:12;;;;;;;3.87;2.23;;;;;20.50;102617.00;;;;2086603;28;20240;-62
2022/01/18 05:40:12;;;;;;;4.20;2.00;;;;;20.50;102615.00;;;;2087464;28;20215;-62
2022/01/18 05:41:13;;;;;;;4.43;1.83;;;;;20.40;102609.00;;;;2087759;28;20224;-62
2022/01/18 05:42:13;;;;;;;3.80;2.00;;;;;20.50;102616.00;;;;2088219;28;20908;-62
2022/01/18 05:43:13;;;;;;;4.30;2.17;;;;;20.40;102616.00;;;;2085513;28;20227;-62
2022/01/18 05:44:14;;;;;;;3.53;1.83;;;;;20.40;102617.00;;;;2088059;28;20213;-65
2022/01/18 05:45:14;;;;;;;6.97;2.17;;;;;20.40;102617.00;;;;2087127;28;20223;-62
2022/01/18 05:46:14;;;;;;;5.50;2.03;;;;;20.40;102612.00;;;;2087031;28;20213;-63
2022/01/18 05:47:15;;;;;;;4.90;2.50;;;;;20.40;102614.00;;;;2087672;28;20516;-63
2022/01/18 05:48:15;;;;;;;4.83;2.20;;;;;20.40;102613.00;;;;2084352;28;20217;-62
2022/01/18 05:49:16;;;;;;;5.33;2.37;;;;;20.50;102614.00;;;;2087416;28;20286;-62
2022/01/18 05:50:16;;;;;;;4.43;1.87;;;;;20.50;102614.00;;;;2087907;28;20581;-62
2022/01/18 05:51:16;;;;;;;5.47;2.20;;;;;20.50;102623.00;;;;2087691;28;20216;-63
2022/01/18 05:52:17;;;;;;;3.70;2.10;;;;;20.50;102631.00;;;;2087404;28;20221;-63
2022/01/18 05:53:17;;;;;;;6.03;2.00;;;;;20.50;102627.00;;;;2087817;28;20283;-63
2022/01/18 05:54:17;;;;;;;7.20;2.33;;;;;20.50;102619.00;;;;2087956;28;20549;-62
2022/01/18 05:55:17;;;;;;;5.30;2.63;;;;;20.50;102622.00;;;;2087776;28;20636;-62
2022/01/18 05:56:18;;;;;;;5.43;2.40;;;;;20.50;102623.00;;;;2087895;28;20850;-62
2022/01/18 05:57:19;;;;;;;4.33;1.80;;;;;20.50;102628.00;;;;2088057;28;20696;-62
2022/01/18 05:58:19;;;;;;;5.23;2.30;;;;;20.50;102613.00;;;;2087754;28;20439;-62
2022/01/18 05:59:24;;;;;;;5.70;2.20;;;;;20.50;102624.00;;;;2088206;28;20223;-62
2022/01/18 06:00:26;;;;;;;6.82;2.10;;;;;20.50;102610.00;;;;2088084;28;20215;-63
2022/01/18 06:01:32;;;;;;;6.45;2.50;;;;;20.50;102611.00;;;;2088408;28;20216;-63
2022/01/18 06:02:42;;;;;;;4.28;2.15;;;;;20.50;102610.00;;;;2088046;28;20212;-63
2022/01/18 06:07:29;;;;;;;4.75;2.20;;;;;20.50;102608.00;;;;2088306;28;20216;-60
2022/01/18 06:08:30;;;;;;;5.57;2.60;;;;;20.50;102600.00;;;;2087742;28;20213;-60
2022/01/18 06:09:30;;;;;;;4.00;2.20;;;;;20.60;102599.00;;;;2087628;28;21647;-60
2022/01/18 06:10:30;;;;;;;4.97;2.13;;;;;20.60;102603.00;;;;2087815;28;20219;-60
2022/01/18 06:11:31;;;;;;;6.27;2.10;;;;;20.60;102598.00;;;;2088181;28;20776;-60
2022/01/18 06:12:32;;;;;;;5.33;2.63;;;;;20.60;102603.00;;;;2084999;28;20573;-60
2022/01/18 06:13:32;;;;;;;4.67;2.13;;;;;20.60;102600.00;;;;2088226;28;20197;-60